Terminal Aerodrome Forecast
Issued by NWS Spokane, WA

Home | Current Version | Previous Version | Text Only | Print | Product List | Glossary On
Versions: 1 2 3 4 5 6 7 8 9 10 11 12 13 14 15 16 17 18 19 20 21 22 23
000
FTUS46 KOTX 012338
TAFLWS
TAF
KLWS 012338Z 0200/0224 31011G18KT P6SM SCT250
     FM020500 14003KT P6SM SCT250
     FM021400 06004KT P6SM SCT200
     FM022000 33006KT P6SM BKN200=

USA.gov is the U.S. government's official web portal to all federal, state and local government web resources and services.